18分钟前
罗盘
风向 的 风向 000° Rodez-Marcillac Airport 13/31
风: 2 千吨, 1 beaufort
0 0 0.17778093859221 500 0.32299085377319 1.500 0.47075341907445 3.000 0.62138884920159 5.000 0.8022287624727 8.000 0.90566318494517 10.000
BKN 2.200 ft
BKN 3.500 ft
BKN 4.700 ft
METAR LFHP 220900Z AUTO VRB02KT 9999 BKN022 BKN035 BKN047 09/07 Q1021

METAR定义 | 嵌入

24小时趋势

航班类别VFRLIFR
温度14 °C6 °C
风速10 千吨0 千吨
能见度10 公里+0 米

更多历史数据

下载我们的安卓应用程序

从你的主屏幕上轻松地访问你的航空天气。
只需一次付费,您就可以获得无广告的体验。

您会帮助我们保持Metar-Taf.com正常运行吗?
您的贡献有助于网站的进一步开发并支付费用。

没有更多广告

您是捐款5美元还是更多?然后,我们将永远不会再向您展示广告,这是我们永恒的感谢!
捐赠前先登录

METAR Rodez-Marcillac Airport

Rodez-Marcillac Airport是Rodez/Marcillac,法国中的中型机场。 机场有{a,plural,=1{一条跑道} other{#跑道}}: 13/31

Rodez-Marcillac Airport最近未发布观察结果。相反,我们向您显示126 km的报告Le Puy-Loudes Airport。 该报告是针对2021年10月22日 11:00, 当地时间进行的。

机场观察

可变方向的风很小或没有风。

可见度为10 公里 或者更多。

有碎云在2.200 ft的高度, 碎云在3.500 ft的高度 和 碎云在4.700 ft的高度。 破损或更高的上限为2.200 ft。

温度为9 °C,阵风为8 °C。 露点为7 °C,相对湿度为87%。 海平面上的气压为1021 压力 (QNH)。

白天

今天,太阳从08:14升起,在18:54降落。 这适用于Rodez-Marcillac Airport,世界夏令时可能有所不同。 当地时间与世界标准时间之间的时差为+2 小时。 夏令时目前正在进行中。

公司介绍

我们没有关于这个机场的公司信息。

体会

到Vliegles.nl去找飞行课程,跳伞和其他飞行体验。 浏览页面,了解Rodez-Marcillac Airport附近所有可用的活动。 你也可以使用搜索功能来寻找你所在地附近的特定飞行课程、跳伞或其他飞行体验。

您是否要在网站上Rodez-Marcillac Airport飞行的天气? 阅读更多   自由!